Time;durP1;ratioP1;P1;durP2;ratioP2;P2;SDS_P1;SDS_P2;PMS_P1;PMS_P2;Temp;Humidity;BMP_temperature;BMP_pressure;BME280_temperature;BME280_humidity;BME280_pressure;Samples;Min_cycle;Max_cycle;Signal;HPM_P1;HPM_P2
2022/05/07 00:00:54;;;;;;;0.95;0.60;;;;;;;18.61;69.28;101491.19;5024410;28;20029;-66
2022/05/07 00:03:19;;;;;;;1.58;0.77;;;;;;;18.57;69.46;101489.59;5027083;28;20056;-66
2022/05/07 00:05:44;;;;;;;1.67;0.90;;;;;;;18.59;69.45;101496.25;5026112;28;20033;-65
2022/05/07 00:08:10;;;;;;;0.82;0.80;;;;;;;18.56;69.50;101482.59;5028767;28;20091;-66
2022/05/07 00:10:36;;;;;;;0.90;0.50;;;;;;;18.52;70.01;101481.81;5024483;28;20058;-66
2022/05/07 00:13:02;;;;;;;5.53;0.93;;;;;;;18.52;70.16;101476.34;5027482;28;20033;-67
2022/05/07 00:15:27;;;;;;;1.88;0.80;;;;;;;18.50;70.41;101479.47;5027191;28;20115;-66
2022/05/07 00:18:02;;;;;;;1.02;0.68;;;;;;;18.48;70.64;101483.75;5025467;28;20116;-66
2022/05/07 00:20:28;;;;;;;2.10;1.00;;;;;;;18.44;70.22;101483.75;5007480;28;20041;-64
2022/05/07 00:22:54;;;;;;;1.20;0.65;;;;;;;18.42;70.13;101490.72;5026615;28;20114;-65
2022/05/07 00:25:20;;;;;;;1.92;0.80;;;;;;;18.45;70.42;101485.31;5029072;28;20037;-65
2022/05/07 00:27:46;;;;;;;4.45;0.82;;;;;;;18.40;70.85;101484.88;5027494;28;20040;-63
2022/05/07 00:30:12;;;;;;;1.20;0.95;;;;;;;18.38;71.00;101484.47;5026941;28;20365;-65
2022/05/07 00:32:38;;;;;;;1.38;0.85;;;;;;;18.39;70.57;101473.19;5028154;28;20025;-65
2022/05/07 00:35:03;;;;;;;2.15;0.80;;;;;;;18.34;70.62;101481.75;5026767;28;20115;-64
2022/05/07 00:37:29;;;;;;;1.90;0.93;;;;;;;18.33;71.08;101479.41;5025992;28;20037;-68
2022/05/07 00:39:54;;;;;;;1.30;0.70;;;;;;;18.29;70.74;101484.84;5026507;28;20036;-67
2022/05/07 00:42:20;;;;;;;1.75;0.60;;;;;;;18.26;71.17;101484.84;5023617;28;20025;-65
2022/05/07 00:44:46;;;;;;;0.63;0.60;;;;;;;18.21;71.90;101483.28;5026973;28;20108;-65
2022/05/07 00:47:14;;;;;;;2.72;0.63;;;;;;;18.24;71.50;101473.53;5026341;28;20033;-67
2022/05/07 00:49:52;;;;;;;1.73;0.80;;;;;;;18.20;72.11;101476.25;5025158;28;20124;-65
2022/05/07 00:52:18;;;;;;;0.93;0.60;;;;;;;18.17;72.01;101473.53;5025580;28;20392;-66
2022/05/07 00:54:45;;;;;;;2.42;1.15;;;;;;;18.16;72.44;101480.13;5026572;28;20439;-66
2022/05/07 00:57:15;;;;;;;0.73;0.73;;;;;;;18.14;72.53;101482.50;5023441;28;20401;-68
2022/05/07 00:59:42;;;;;;;0.52;0.50;;;;;;;18.15;73.16;101482.09;5009455;28;20060;-67
2022/05/07 01:02:08;;;;;;;1.38;0.82;;;;;;;18.13;73.07;101483.63;5011867;28;20069;-66
2022/05/07 01:04:35;;;;;;;1.58;0.90;;;;;;;18.07;73.41;101477.00;5013052;28;20456;-65
2022/05/07 01:07:02;;;;;;;1.63;0.80;;;;;;;18.06;73.34;101475.44;5023442;28;20272;-63
2022/05/07 01:09:28;;;;;;;1.98;0.73;;;;;;;18.06;73.13;101470.75;5009676;28;20022;-64
2022/05/07 01:11:55;;;;;;;1.70;0.98;;;;;;;18.11;72.35;101478.56;5023489;28;20021;-65
2022/05/07 01:14:20;;;;;;;2.50;0.98;;;;;;;18.10;73.11;101478.97;5025082;28;20037;-65
2022/05/07 01:16:46;;;;;;;1.75;1.02;;;;;;;18.13;73.35;101475.47;5025817;28;20461;-65
2022/05/07 01:19:11;;;;;;;1.55;1.10;;;;;;;18.08;73.44;101468.44;5010068;28;20029;-65
2022/05/07 01:21:37;;;;;;;1.98;1.15;;;;;;;18.06;73.06;101472.72;5025497;28;20029;-65
2022/05/07 01:24:04;;;;;;;3.42;1.50;;;;;;;18.01;73.20;101469.22;5012976;28;20071;-64
2022/05/07 01:26:33;;;;;;;3.38;1.00;;;;;;;18.04;73.34;101462.97;5006984;28;20038;-67
2022/05/07 01:29:03;;;;;;;1.92;0.93;;;;;;;17.92;74.13;101463.31;5023340;28;20468;-65
2022/05/07 01:31:30;;;;;;;1.60;1.10;;;;;;;17.87;74.41;101466.44;5006320;28;20037;-65
2022/05/07 01:33:56;;;;;;;3.45;1.00;;;;;;;17.88;73.89;101464.47;5022434;28;20447;-66
2022/05/07 01:36:23;;;;;;;2.25;1.02;;;;;;;17.87;73.77;101462.91;5023188;28;20056;-66
2022/05/07 01:38:56;;;;;;;3.00;1.15;;;;;;;17.78;73.92;101459.78;5023332;28;20150;-67
2022/05/07 01:41:21;;;;;;;5.28;1.25;;;;;;;17.73;74.64;101465.59;5023653;28;20029;-64
2022/05/07 01:43:50;;;;;;;1.48;0.80;;;;;;;17.67;75.07;101459.72;5013831;28;20073;-66
2022/05/07 01:49:05;;;;;;;1.42;1.00;;;;;;;17.57;75.03;101465.91;5021257;28;20037;-67
2022/05/07 01:51:31;;;;;;;3.40;0.98;;;;;;;17.53;75.20;101465.13;5008162;28;20025;-64
2022/05/07 01:53:58;;;;;;;1.88;1.00;;;;;;;17.42;75.45;101464.22;5023939;28;20507;-65
2022/05/07 01:56:24;;;;;;;2.92;1.30;;;;;;;17.32;75.64;101467.69;5019487;28;20040;-64
2022/05/07 01:58:51;;;;;;;3.15;1.23;;;;;;;17.22;76.19;101475.78;5024659;28;20760;-67
2022/05/07 02:01:17;;;;;;;2.55;1.10;;;;;;;17.25;76.04;101462.19;5007177;28;20038;-64
2022/05/07 02:03:42;;;;;;;5.97;0.90;;;;;;;17.20;75.66;101459.03;5010971;28;20034;-65
2022/05/07 02:06:08;;;;;;;1.10;1.00;;;;;;;17.15;76.10;101460.16;5007836;28;20249;-65
2022/05/07 02:08:34;;;;;;;1.17;0.90;;;;;;;17.10;76.22;101458.59;5013810;28;20381;-64
2022/05/07 02:11:04;;;;;;;1.08;0.88;;;;;;;17.03;76.72;101460.50;5021862;28;20037;-66
2022/05/07 02:13:31;;;;;;;2.45;1.27;;;;;;;16.99;77.22;101460.44;5020164;28;20022;-67
2022/05/07 02:15:58;;;;;;;1.45;0.90;;;;;;;16.96;76.95;101457.72;4996543;28;20044;-66
2022/05/07 02:18:25;;;;;;;3.92;1.58;;;;;;;16.95;77.34;101453.44;5007570;28;20026;-65
2022/05/07 02:20:53;;;;;;;2.05;1.00;;;;;;;16.86;77.50;101453.75;5008510;28;20037;-64
2022/05/07 02:23:19;;;;;;;2.13;1.63;;;;;;;16.85;77.32;101454.13;5021310;28;20576;-64
2022/05/07 02:25:45;;;;;;;1.90;1.27;;;;;;;16.79;77.29;101452.91;5011192;28;20160;-65
2022/05/07 02:28:10;;;;;;;2.70;0.90;;;;;;;16.70;77.75;101455.97;5025585;28;20108;-65
2022/05/07 02:30:36;;;;;;;1.45;1.02;;;;;;;16.66;77.82;101454.38;5020226;28;20037;-64
2022/05/07 02:33:04;;;;;;;2.13;1.15;;;;;;;16.63;78.52;101455.09;5010286;28;20507;-65
2022/05/07 02:35:32;;;;;;;2.83;1.20;;;;;;;16.55;78.48;101454.25;5024605;28;20152;-65
2022/05/07 02:37:58;;;;;;;2.95;1.20;;;;;;;16.54;78.58;101450.00;5023877;28;20516;-64
2022/05/07 02:40:23;;;;;;;1.25;1.00;;;;;;;16.54;78.76;101454.66;5024510;28;20037;-65
2022/05/07 02:42:49;;;;;;;3.20;1.20;;;;;;;16.52;78.81;101454.25;5021844;28;20041;-66
2022/05/07 02:45:17;;;;;;;4.25;1.05;;;;;;;16.50;78.80;101462.78;5016877;28;20028;-67
2022/05/07 02:47:46;;;;;;;1.77;1.17;;;;;;;16.52;78.88;101460.47;5023232;28;20431;-65
2022/05/07 02:50:14;;;;;;;0.85;0.68;;;;;;;16.48;79.13;101456.94;5025749;28;20029;-66
2022/05/07 02:52:40;;;;;;;1.60;0.77;;;;;;;16.47;79.34;101454.56;5006986;28;20399;-66
2022/05/07 02:55:09;;;;;;;1.10;0.60;;;;;;;16.50;79.11;101454.63;5008391;28;20028;-67
2022/05/07 02:57:36;;;;;;;1.30;1.00;;;;;;;16.49;79.32;101450.31;5005751;28;20493;-65
2022/05/07 03:00:04;;;;;;;1.85;0.82;;;;;;;16.53;79.46;101455.81;5008198;28;20036;-67
2022/05/07 03:02:31;;;;;;;2.05;1.25;;;;;;;16.47;79.77;101452.63;5008104;28;20029;-65
2022/05/07 03:04:57;;;;;;;2.92;1.30;;;;;;;16.45;79.36;101459.59;5024121;28;20033;-66
2022/05/07 03:07:23;;;;;;;2.60;1.25;;;;;;;16.43;79.26;101453.75;5002103;28;20552;-66
2022/05/07 03:09:50;;;;;;;2.70;1.10;;;;;;;16.40;79.77;101451.75;5022188;28;20028;-67
2022/05/07 03:12:15;;;;;;;1.33;0.93;;;;;;;16.37;80.02;101461.47;5025127;28;21400;-66
2022/05/07 03:14:44;;;;;;;1.33;1.15;;;;;;;16.35;79.39;101452.09;5026917;28;20084;-66
2022/05/07 03:17:09;;;;;;;1.85;1.25;;;;;;;16.26;79.83;101447.75;5027769;28;20033;-67
2022/05/07 03:19:35;;;;;;;3.63;1.45;;;;;;;16.25;79.75;101448.91;5030755;28;20026;-65
2022/05/07 03:22:01;;;;;;;2.78;1.02;;;;;;;16.21;79.69;101442.66;5023087;28;20036;-65
2022/05/07 03:24:28;;;;;;;3.80;1.02;;;;;;;16.18;80.31;101451.53;5027301;28;20145;-66
2022/05/07 03:26:57;;;;;;;2.15;1.25;;;;;;;16.15;80.29;101455.03;5013976;28;20037;-66
2022/05/07 03:29:23;;;;;;;1.98;1.20;;;;;;;16.15;80.36;101459.66;5028683;28;20021;-66
2022/05/07 03:31:54;;;;;;;1.85;1.08;;;;;;;16.16;80.45;101455.81;5026167;28;20075;-66
2022/05/07 03:34:21;;;;;;;3.13;1.30;;;;;;;16.18;79.83;101456.97;5027937;28;20022;-66
2022/05/07 03:36:48;;;;;;;2.75;1.25;;;;;;;16.15;80.60;101454.22;4994531;28;20034;-66
2022/05/07 03:39:13;;;;;;;1.70;0.95;;;;;;;16.17;80.48;101455.44;5025124;28;20041;-66
2022/05/07 03:41:40;;;;;;;3.60;1.38;;;;;;;16.21;80.43;101458.19;5015833;28;20033;-66
2022/05/07 03:44:07;;;;;;;2.20;1.00;;;;;;;16.24;80.93;101454.72;5007949;28;20663;-66
2022/05/07 03:46:33;;;;;;;3.70;1.50;;;;;;;16.24;81.19;101460.94;5024064;28;20736;-67
2022/05/07 03:49:01;;;;;;;3.78;1.40;;;;;;;16.28;81.00;101450.88;5029175;28;20025;-67
2022/05/07 03:51:28;;;;;;;1.70;0.98;;;;;;;16.35;81.38;101455.63;5009220;28;20120;-66
2022/05/07 03:54:03;;;;;;;2.33;1.45;;;;;;;16.38;81.31;101449.41;5018747;28;20112;-67
2022/05/07 03:56:29;;;;;;;1.52;1.20;;;;;;;16.41;81.24;101448.69;5028366;28;20568;-67
2022/05/07 03:58:55;;;;;;;4.68;1.67;;;;;;;16.47;81.50;101451.84;5009959;28;20068;-67
2022/05/07 04:01:50;;;;;;;4.72;1.73;;;;;;;16.48;81.01;101454.22;5017924;28;20048;-66
2022/05/07 04:04:24;;;;;;;3.47;1.58;;;;;;;16.48;80.68;101453.38;5013983;28;20064;-66
2022/05/07 04:06:50;;;;;;;4.32;1.85;;;;;;;16.49;80.98;101455.75;5026541;28;20400;-66
2022/05/07 04:09:17;;;;;;;3.55;1.75;;;;;;;16.48;80.82;101456.94;5026172;28;20109;-67
2022/05/07 04:11:43;;;;;;;4.13;1.92;;;;;;;16.48;80.72;101464.25;5014786;28;20141;-66
2022/05/07 04:14:09;;;;;;;2.63;1.52;;;;;;;16.41;81.20;101456.84;5013406;28;20521;-66
2022/05/07 04:16:34;;;;;;;2.80;1.27;;;;;;;16.44;81.28;101463.44;5008547;28;20120;-68
2022/05/07 04:19:04;;;;;;;3.75;1.58;;;;;;;16.42;81.33;101460.31;4993532;28;20041;-67
2022/05/07 04:21:32;;;;;;;5.13;1.77;;;;;;;16.41;81.45;101467.72;5010023;28;20037;-66
2022/05/07 04:24:06;;;;;;;5.50;2.25;;;;;;;16.43;81.27;101465.41;5015201;28;20593;-68
2022/05/07 04:26:34;;;;;;;7.22;2.22;;;;;;;16.41;81.08;101465.00;5007011;28;20307;-66
2022/05/07 04:29:00;;;;;;;6.03;1.90;;;;;;;16.41;81.14;101464.22;5026591;28;20030;-66
2022/05/07 04:31:26;;;;;;;5.55;2.28;;;;;;;16.40;81.14;101462.63;5029449;28;20037;-67
2022/05/07 04:33:57;;;;;;;5.10;2.40;;;;;;;16.36;81.67;101465.31;5007548;28;20027;-65
2022/05/07 04:36:23;;;;;;;9.23;2.10;;;;;;;16.39;81.89;101458.38;5011250;28;21483;-66
2022/05/07 04:38:49;;;;;;;4.15;1.63;;;;;;;16.34;81.92;101469.59;5026050;28;20053;-66
2022/05/07 04:41:22;;;;;;;5.43;2.38;;;;;;;16.33;82.07;101465.28;5027469;28;20025;-66
2022/05/07 04:43:48;;;;;;;5.70;2.08;;;;;;;16.31;82.44;101475.75;5000143;28;20130;-66
2022/05/07 04:46:17;;;;;;;5.38;2.50;;;;;;;16.35;82.79;101471.13;5022986;28;20029;-67
2022/05/07 04:48:47;;;;;;;6.05;2.22;;;;;;;16.32;82.41;101475.38;5016166;28;20029;-67
2022/05/07 04:51:13;;;;;;;4.70;1.60;;;;;;;16.35;82.61;101474.66;5024679;28;20029;-68
2022/05/07 04:53:46;;;;;;;2.92;1.98;;;;;;;16.36;83.02;101475.41;5026986;28;20033;-66
2022/05/07 04:56:18;;;;;;;5.43;2.20;;;;;;;16.36;82.77;101483.56;5022125;28;20033;-66
2022/05/07 04:58:53;;;;;;;6.90;2.38;;;;;;;16.38;82.42;101478.53;5023242;28;20026;-67
2022/05/07 05:01:24;;;;;;;6.45;2.05;;;;;;;16.38;83.24;101486.69;5017399;28;20084;-66
2022/05/07 05:03:52;;;;;;;4.57;2.00;;;;;;;16.37;83.09;101479.72;5007281;28;20078;-66
2022/05/07 05:06:22;;;;;;;6.25;2.47;;;;;;;16.41;83.20;101484.03;5009802;28;20496;-66
2022/05/07 05:08:56;;;;;;;4.22;2.20;;;;;;;16.50;82.56;101481.03;5003744;28;20116;-65
2022/05/07 05:11:22;;;;;;;4.95;2.10;;;;;;;16.52;82.55;101478.72;5007449;28;20054;-67
2022/05/07 05:13:48;;;;;;;4.80;1.83;;;;;;;16.55;82.54;101483.41;5016415;28;20022;-66
2022/05/07 05:16:14;;;;;;;4.38;1.92;;;;;;;16.68;82.75;101485.50;5019703;28;20087;-67
2022/05/07 05:18:48;;;;;;;5.55;2.55;;;;;;;17.00;81.81;101480.28;5026318;28;20061;-68
2022/05/07 05:21:17;;;;;;;5.50;2.22;;;;;;;17.71;79.31;101482.31;5026808;28;20030;-66
2022/05/07 05:23:56;;;;;;;5.78;2.50;;;;;;;18.55;75.38;101481.03;5025748;28;20077;-66
2022/05/07 05:26:22;;;;;;;8.77;3.45;;;;;;;19.15;71.45;101484.53;5008222;28;20041;-66
2022/05/07 05:28:56;;;;;;;7.38;2.80;;;;;;;19.16;70.24;101493.50;5007498;28;20373;-67
2022/05/07 05:31:23;;;;;;;6.90;2.88;;;;;;;18.97;71.38;101493.94;5026497;28;20028;-66
2022/05/07 05:33:57;;;;;;;4.97;2.00;;;;;;;18.84;72.23;101505.22;5008598;28;20770;-66
2022/05/07 05:36:38;;;;;;;4.78;1.88;;;;;;;18.82;73.06;101502.09;5022831;28;20033;-66
2022/05/07 05:39:06;;;;;;;4.57;1.67;;;;;;;18.81;73.46;101495.06;5005608;28;20032;-66
2022/05/07 05:41:35;;;;;;;2.60;1.27;;;;;;;19.13;73.02;101508.72;5005028;28;20032;-66
2022/05/07 05:44:02;;;;;;;3.35;1.50;;;;;;;19.20;72.52;101503.25;5014156;28;20159;-66
2022/05/07 05:46:29;;;;;;;9.55;1.88;;;;;;;19.08;72.08;101508.34;4993457;28;20033;-67
2022/05/07 05:48:54;;;;;;;4.80;1.63;;;;;;;18.90;72.59;101511.88;5017398;28;20040;-66
2022/05/07 05:51:20;;;;;;;2.22;1.58;;;;;;;18.66;73.16;101514.59;5022816;28;20435;-65
2022/05/07 05:53:48;;;;;;;1.60;1.38;;;;;;;18.49;73.96;101509.84;5036983;28;20480;-65
2022/05/07 05:56:14;;;;;;;3.38;1.65;;;;;;;18.40;74.82;101512.94;5026292;28;20033;-66
2022/05/07 05:58:45;;;;;;;3.95;2.13;;;;;;;18.35;75.52;101510.56;5012079;28;20029;-65
2022/05/07 06:01:12;;;;;;;3.90;1.73;;;;;;;18.28;75.18;101515.22;5027220;28;20030;-65
2022/05/07 06:03:50;;;;;;;3.00;1.63;;;;;;;18.24;75.34;101517.97;5005952;28;20045;-66
2022/05/07 06:06:17;;;;;;;2.97;1.45;;;;;;;18.22;76.15;101520.28;5033537;28;20037;-67
2022/05/07 06:08:43;;;;;;;4.32;2.00;;;;;;;18.22;76.22;101516.78;5026431;28;20087;-66
2022/05/07 06:11:10;;;;;;;5.20;2.13;;;;;;;18.28;76.38;101528.88;5025340;28;20044;-66
2022/05/07 06:13:36;;;;;;;5.20;2.22;;;;;;;18.28;76.54;101537.06;5006675;28;20396;-67
2022/05/07 06:16:01;;;;;;;7.13;2.45;;;;;;;18.33;76.91;101528.50;5026680;28;20026;-67
2022/05/07 06:18:29;;;;;;;7.40;2.70;;;;;;;18.33;77.27;101529.28;5006612;28;20033;-65
2022/05/07 06:21:01;;;;;;;8.35;2.50;;;;;;;18.41;76.81;101535.53;5024170;28;20400;-67
2022/05/07 06:23:29;;;;;;;6.55;2.75;;;;;;;18.53;75.79;101527.00;5018858;28;20124;-67
2022/05/07 06:28:39;;;;;;;7.45;2.55;;;;;;;18.55;75.92;101541.84;5024872;28;20341;-65
2022/05/07 06:31:06;;;;;;;6.75;3.08;;;;;;;18.57;75.97;101544.19;5026536;28;20030;-67
2022/05/07 06:33:32;;;;;;;5.05;2.65;;;;;;;18.62;75.93;101535.63;4991068;28;20532;-65
2022/05/07 06:36:06;;;;;;;8.32;2.60;;;;;;;18.65;75.46;101548.47;5004217;28;20052;-66
2022/05/07 06:38:35;;;;;;;7.18;2.70;;;;;;;18.66;76.00;101550.06;5008726;28;20100;-67
2022/05/07 06:41:02;;;;;;;2.83;1.83;;;;;;;18.81;75.41;101543.44;5027821;28;20086;-67
2022/05/07 06:43:33;;;;;;;5.22;2.72;;;;;;;18.93;75.37;101543.84;5020626;28;20321;-66
2022/05/07 06:46:02;;;;;;;9.02;2.65;;;;;;;19.07;74.91;101551.25;5025713;28;20501;-68
2022/05/07 06:48:29;;;;;;;5.75;2.28;;;;;;;19.15;74.71;101544.63;5028849;28;20025;-68
2022/05/07 06:50:59;;;;;;;6.30;2.72;;;;;;;19.19;73.98;101550.88;5004575;28;20485;-68
2022/05/07 06:53:28;;;;;;;6.07;2.47;;;;;;;19.27;73.50;101546.97;4997700;28;20045;-67
2022/05/07 06:55:56;;;;;;;4.95;2.10;;;;;;;19.46;72.95;101548.53;5029825;28;20048;-68
2022/05/07 06:58:22;;;;;;;5.50;2.28;;;;;;;19.56;72.91;101548.53;5023585;28;20036;-66
2022/05/07 07:00:47;;;;;;;6.32;1.83;;;;;;;19.62;72.80;101544.22;5022522;28;20029;-67
2022/05/07 07:03:13;;;;;;;3.92;2.03;;;;;;;19.76;71.86;101548.88;5024255;28;20037;-66
2022/05/07 07:05:38;;;;;;;5.45;1.70;;;;;;;19.86;71.31;101553.50;5029924;28;20772;-66
2022/05/07 07:08:04;;;;;;;4.40;1.85;;;;;;;19.93;70.63;101552.72;5008025;28;20045;-66
2022/05/07 07:10:29;;;;;;;6.70;2.50;;;;;;;20.02;69.44;101550.31;5028307;28;20029;-67
2022/05/07 07:12:55;;;;;;;4.78;2.05;;;;;;;20.03;68.84;101551.91;5022583;28;20029;-66
2022/05/07 07:15:20;;;;;;;4.60;2.00;;;;;;;20.16;69.05;101556.53;5017675;28;20033;-66
2022/05/07 07:17:46;;;;;;;3.20;1.65;;;;;;;20.23;68.69;101545.56;5020048;28;20029;-66
2022/05/07 07:20:12;;;;;;;4.93;1.70;;;;;;;20.31;67.48;101557.25;5026001;28;20048;-66
2022/05/07 07:22:39;;;;;;;5.05;1.50;;;;;;;20.37;68.00;101555.66;5027052;28;20037;-65
2022/05/07 07:25:05;;;;;;;2.85;1.60;;;;;;;20.47;66.85;101561.09;5029889;28;20488;-65
2022/05/07 07:27:31;;;;;;;4.72;1.70;;;;;;;20.45;65.97;101571.66;5029750;28;20443;-67
2022/05/07 07:29:56;;;;;;;3.15;1.45;;;;;;;20.38;65.89;101570.94;5026980;28;20053;-68
2022/05/07 07:32:22;;;;;;;4.25;1.70;;;;;;;20.34;66.29;101564.69;5020547;28;20026;-66
2022/05/07 07:34:48;;;;;;;3.08;0.90;;;;;;;20.25;66.73;101569.78;5021979;28;20052;-66
2022/05/07 07:37:13;;;;;;;2.30;1.13;;;;;;;20.22;66.21;101567.88;5029466;28;20037;-66
2022/05/07 07:39:39;;;;;;;1.95;0.73;;;;;;;20.20;64.18;101572.94;5023673;28;20488;-69
2022/05/07 07:42:05;;;;;;;1.88;1.08;;;;;;;20.17;64.02;101573.72;5029544;28;20038;-65
2022/05/07 07:44:31;;;;;;;1.83;1.13;;;;;;;20.23;64.57;101572.16;5027684;28;20022;-68
2022/05/07 07:49:40;;;;;;;4.00;1.25;;;;;;;20.45;64.41;101576.34;5027908;28;20029;-66
2022/05/07 07:52:06;;;;;;;3.08;1.00;;;;;;;20.50;63.18;101570.44;5027839;28;20113;-64
2022/05/07 07:54:32;;;;;;;1.80;0.93;;;;;;;20.66;62.61;101576.22;5028078;28;20037;-64
2022/05/07 07:57:02;;;;;;;2.40;0.85;;;;;;;20.74;62.25;101577.75;5026492;28;20021;-66
2022/05/07 07:59:28;;;;;;;3.13;1.10;;;;;;;20.84;61.29;101574.16;5026585;28;20388;-65
2022/05/07 08:01:53;;;;;;;1.80;1.00;;;;;;;20.98;60.22;101586.97;5026414;28;20033;-69
2022/05/07 08:04:20;;;;;;;2.13;0.80;;;;;;;21.03;59.07;101586.56;5026968;28;20459;-65
2022/05/07 08:11:39;;;;;;;1.92;1.00;;;;;;;21.21;58.69;101582.53;5029575;28;20102;-65
2022/05/07 08:12:15;;;;;;;1.48;0.43;;;;;;;21.43;57.38;101594.84;5024384;28;20087;-66
2022/05/07 08:14:40;;;;;;;0.57;0.30;;;;;;;21.54;56.91;101595.53;5027408;28;20040;-66
2022/05/07 08:17:06;;;;;;;0.55;0.30;;;;;;;21.45;56.42;101584.25;5028890;28;20583;-65
2022/05/07 08:19:32;;;;;;;1.40;0.63;;;;;;;21.42;56.16;101593.31;5030737;28;20034;-65
2022/05/07 08:21:57;;;;;;;1.92;0.88;;;;;;;21.40;56.70;101595.69;5024896;28;20173;-64
2022/05/07 08:24:23;;;;;;;0.65;0.40;;;;;;;21.44;57.00;101590.16;5026693;28;20507;-65
2022/05/07 08:26:48;;;;;;;0.63;0.57;;;;;;;21.42;56.39;101590.56;5022622;28;20033;-65
2022/05/07 08:29:14;;;;;;;1.02;0.40;;;;;;;21.35;56.63;101593.34;5027012;28;20029;-66
2022/05/07 08:31:41;;;;;;;1.88;0.65;;;;;;;21.34;57.48;101591.81;5023368;28;20496;-67
2022/05/07 08:34:07;;;;;;;4.45;0.70;;;;;;;21.31;58.01;101595.34;5020473;28;20044;-65
2022/05/07 08:36:32;;;;;;;1.67;0.55;;;;;;;21.25;57.84;101588.72;5001429;28;20114;-67
2022/05/07 08:38:58;;;;;;;1.17;0.63;;;;;;;21.27;58.29;101596.56;5023704;28;20490;-66
2022/05/07 08:41:25;;;;;;;1.90;1.20;;;;;;;21.31;57.39;101600.81;5000474;28;20029;-65
2022/05/07 08:43:50;;;;;;;1.88;0.73;;;;;;;21.24;57.29;101603.63;5023078;28;20629;-66
2022/05/07 08:46:18;;;;;;;0.70;0.47;;;;;;;21.24;57.44;101603.63;5014779;28;20033;-67
2022/05/07 08:48:46;;;;;;;0.50;0.25;;;;;;;21.27;58.15;101597.34;5018277;28;20071;-66
2022/05/07 08:51:16;;;;;;;0.98;0.50;;;;;;;21.37;59.22;101598.41;5026512;28;20464;-65
2022/05/07 08:53:43;;;;;;;1.45;0.60;;;;;;;21.49;58.27;101597.94;5020407;28;20043;-65
2022/05/07 08:56:10;;;;;;;1.25;0.70;;;;;;;21.60;57.92;101604.13;5025490;28;20396;-64
2022/05/07 08:58:35;;;;;;;1.05;0.60;;;;;;;21.79;56.95;101600.78;5026029;28;20559;-66
2022/05/07 09:01:01;;;;;;;1.52;0.50;;;;;;;21.76;55.63;101603.53;5027565;28;20120;-65
2022/05/07 09:03:43;;;;;;;0.55;0.30;;;;;;;21.92;54.92;101599.09;5029693;28;20664;-65
2022/05/07 09:06:26;;;;;;;0.88;0.73;;;;;;;21.92;54.48;101609.28;5029515;28;20395;-65
2022/05/07 09:08:54;;;;;;;0.50;0.35;;;;;;;21.95;54.46;101603.00;5026981;28;20055;-67
2022/05/07 09:11:20;;;;;;;0.55;0.47;;;;;;;22.01;54.28;101604.13;5026710;28;20037;-67
2022/05/07 09:13:46;;;;;;;1.30;0.55;;;;;;;22.19;55.29;101610.94;5020095;28;20687;-65
2022/05/07 09:16:12;;;;;;;0.77;0.47;;;;;;;22.28;54.71;101607.69;5024458;28;20033;-67
2022/05/07 09:18:38;;;;;;;0.80;0.52;;;;;;;22.29;53.30;101612.00;5023234;28;20044;-68
2022/05/07 09:21:26;;;;;;;3.13;0.38;;;;;;;22.39;53.87;101608.34;5025082;28;20025;-67
2022/05/07 09:24:06;;;;;;;0.50;0.32;;;;;;;22.35;53.44;101607.63;5014894;28;20113;-66
2022/05/07 09:26:33;;;;;;;1.90;0.55;;;;;;;22.34;53.58;101595.06;5017317;28;20388;-68
2022/05/07 09:29:00;;;;;;;0.20;0.15;;;;;;;22.49;53.46;101601.16;5023813;28;20036;-67
2022/05/07 09:31:27;;;;;;;0.80;0.50;;;;;;;22.57;53.29;101606.16;5025188;28;20036;-65
2022/05/07 09:36:42;;;;;;;0.75;0.30;;;;;;;22.70;52.96;101604.44;5024293;28;20445;-66
2022/05/07 09:39:10;;;;;;;0.65;0.30;;;;;;;22.75;52.12;101611.41;5020159;28;20036;-66
2022/05/07 09:41:36;;;;;;;0.52;0.38;;;;;;;22.68;51.84;101604.06;5021576;28;20036;-65
2022/05/07 09:44:03;;;;;;;0.80;0.40;;;;;;;22.61;51.45;101606.13;5018904;28;20036;-67
2022/05/07 09:46:30;;;;;;;1.10;0.35;;;;;;;22.62;52.27;101602.97;5027801;28;20045;-66
2022/05/07 09:48:59;;;;;;;2.58;0.40;;;;;;;22.67;52.30;101604.44;5024500;28;20108;-67
2022/05/07 09:51:25;;;;;;;2.72;0.63;;;;;;;22.70;50.97;101609.13;5022068;28;20029;-64
2022/05/07 09:59:19;;;;;;;1.00;0.47;;;;;;;23.10;51.15;101611.66;5022131;28;20045;-64
2022/05/07 10:02:17;;;;;;;0.77;0.40;;;;;;;23.36;49.91;101601.06;5018157;28;20029;-65
2022/05/07 10:05:01;;;;;;;1.25;0.45;;;;;;;23.63;49.86;101599.81;5022692;28;20369;-65
2022/05/07 10:08:03;;;;;;;0.75;0.30;;;;;;;23.88;50.04;101600.13;5017243;28;20034;-64
2022/05/07 10:10:33;;;;;;;1.05;0.45;;;;;;;24.05;48.74;101601.00;5016031;28;20040;-64
2022/05/07 10:13:01;;;;;;;0.75;0.43;;;;;;;24.04;48.52;101605.72;5027663;28;20413;-65
2022/05/07 10:15:27;;;;;;;0.70;0.47;;;;;;;24.01;48.49;101603.78;5019618;28;20068;-64
2022/05/07 10:18:02;;;;;;;0.60;0.20;;;;;;;23.98;49.03;101603.88;5014752;28;20678;-65
2022/05/07 10:20:45;;;;;;;0.43;0.40;;;;;;;23.95;48.13;101604.69;5015726;28;20127;-65
2022/05/07 10:23:12;;;;;;;3.25;0.50;;;;;;;23.84;47.37;101615.94;5023534;28;20072;-67
2022/05/07 10:25:39;;;;;;;0.85;0.45;;;;;;;23.70;47.73;101612.66;5023810;28;20227;-66
2022/05/07 10:28:10;;;;;;;0.50;0.35;;;;;;;23.71;48.50;101614.22;5025314;28;20491;-67
2022/05/07 10:30:46;;;;;;;0.75;0.30;;;;;;;23.72;49.20;101597.28;5022022;28;20515;-65
2022/05/07 10:33:11;;;;;;;0.82;0.55;;;;;;;23.70;49.20;101594.16;5024488;28;20092;-66
2022/05/07 10:35:54;;;;;;;0.45;0.25;;;;;;;23.76;49.11;101598.00;5027392;28;20025;-66
2022/05/07 10:38:32;;;;;;;0.57;0.28;;;;;;;23.91;48.98;101593.75;5025055;28;20042;-65
2022/05/07 10:41:01;;;;;;;0.43;0.25;;;;;;;24.17;48.71;101597.59;5027560;28;20391;-65
2022/05/07 10:43:36;;;;;;;1.73;0.32;;;;;;;24.43;47.62;101593.13;5028873;28;20065;-65
2022/05/07 10:46:12;;;;;;;1.35;0.50;;;;;;;24.59;47.23;101599.47;5029101;28;20080;-66
2022/05/07 10:48:52;;;;;;;0.30;0.10;;;;;;;24.52;46.94;101587.81;5030085;28;20022;-65
2022/05/07 10:51:31;;;;;;;1.30;0.30;;;;;;;24.48;47.73;101585.16;5011038;28;20080;-67
2022/05/07 10:54:00;;;;;;;0.80;0.30;;;;;;;24.44;47.58;101598.22;5023539;28;20029;-67
2022/05/07 10:56:29;;;;;;;0.60;0.28;;;;;;;24.50;47.80;101592.97;5024102;28;20037;-66
2022/05/07 10:58:57;;;;;;;0.90;0.45;;;;;;;24.54;47.50;101588.94;5030298;28;20034;-66
2022/05/07 11:01:24;;;;;;;0.55;0.32;;;;;;;24.62;47.15;101586.81;5031703;28;20278;-65
2022/05/07 11:04:03;;;;;;;2.90;0.70;;;;;;;24.63;47.09;101589.13;5027937;28;20044;-65
2022/05/07 11:06:28;;;;;;;0.93;0.30;;;;;;;24.63;47.18;101591.88;5030231;28;20088;-66
2022/05/07 11:08:54;;;;;;;0.60;0.40;;;;;;;24.73;47.35;101593.66;5031962;28;20404;-65
2022/05/07 11:11:19;;;;;;;1.77;0.13;;;;;;;24.65;46.57;101581.22;5027204;28;20540;-65
2022/05/07 11:13:50;;;;;;;0.60;0.35;;;;;;;24.66;47.25;101585.50;5027982;28;20037;-66
2022/05/07 11:16:19;;;;;;;0.33;0.33;;;;;;;24.53;47.13;101590.13;5019933;28;20397;-66
2022/05/07 11:18:53;;;;;;;1.45;0.30;;;;;;;24.61;47.99;101596.25;5005207;28;20319;-66
2022/05/07 11:21:19;;;;;;;2.08;0.50;;;;;;;24.56;48.41;101588.53;5020394;28;20037;-66
2022/05/07 11:23:56;;;;;;;1.10;0.47;;;;;;;24.54;47.11;101593.69;5031789;28;20087;-65
2022/05/07 11:26:23;;;;;;;1.23;0.47;;;;;;;24.54;47.82;101593.69;5023990;28;20029;-66
2022/05/07 11:28:49;;;;;;;0.73;0.45;;;;;;;24.53;47.47;101590.13;5024401;28;20033;-66
2022/05/07 11:31:29;;;;;;;0.82;0.55;;;;;;;24.63;48.40;101582.84;5019193;28;20673;-66
2022/05/07 11:34:13;;;;;;;1.67;0.63;;;;;;;24.84;49.26;101591.44;5019505;28;20527;-66
2022/05/07 11:36:39;;;;;;;0.68;0.40;;;;;;;24.92;47.79;101598.34;5023839;28;20044;-65
2022/05/07 11:39:06;;;;;;;2.08;1.10;;;;;;;25.03;46.99;101584.28;5025308;28;20049;-66
2022/05/07 11:41:32;;;;;;;1.63;0.45;;;;;;;25.09;47.19;101587.31;5030273;28;20043;-65
2022/05/07 11:46:52;;;;;;;0.90;0.50;;;;;;;25.12;47.17;101591.97;5028935;28;20033;-65
2022/05/07 11:49:30;;;;;;;0.70;0.50;;;;;;;24.99;47.20;101586.34;5029895;28;20030;-66
2022/05/07 11:52:05;;;;;;;0.77;0.50;;;;;;;24.83;47.03;101586.34;5026156;28;20044;-68